1N7 weather

Blairstown Airport
Blairstown, New Jersey, United States

Public forecast

Using degrees Fahrenheit for public forecast. Weather courtesy of forecast.io.

METAR (pilot weather report)

Closest report is Aeroflex-Andover Airport, 12.0 nm (22.2 km) E. Retrieved 2019/09/17 23:54 UTC (27 minutes ago):

K12N 172354Z AUTO 00000KT 16/13 A3014 RMK AO1 SLP205 T01560128 10250 20156 53012

TAF (pilot weather forecast)

Forecast is more than 12 hours old.

Closest forecast is Lehigh Valley International Airport, 27.8 nm (51.5 km) SW. Retrieved 2019/09/17 00:33 UTC (24 hours ago):

TAF KABE 172331Z 1800/1824 VRB03KT P6SM SKC FM181000 05004KT P6SM SCT040 FM181600 06006KT P6SM BKN040